Time;durP1;ratioP1;P1;durP2;ratioP2;P2;SDS_P1;SDS_P2;PMS_P1;PMS_P2;Temp;Humidity;BMP_temperature;BMP_pressure;BME280_temperature;BME280_humidity;BME280_pressure;Samples;Min_cycle;Max_cycle;Signal;HPM_P1;HPM_P2
2021/05/30 00:01:22;;;;;;;;;;;17.50;49.80;;;;;;4948973;29;19958;-79
2021/05/30 00:03:48;;;;;;;;;;;17.50;49.30;;;;;;4940266;29;19911;-80
2021/05/30 00:06:14;;;;;;;;;;;17.40;49.20;;;;;;4929921;29;19911;-79
2021/05/30 00:08:40;;;;;;;;;;;17.40;49.30;;;;;;4919383;29;19918;-79
2021/05/30 00:11:06;;;;;;;;;;;17.30;49.20;;;;;;4948576;29;20413;-80
2021/05/30 00:13:32;;;;;;;;;;;17.20;49.00;;;;;;4948861;29;19969;-78
2021/05/30 00:15:58;;;;;;;;;;;17.20;49.10;;;;;;4948845;29;19918;-80
2021/05/30 00:18:24;;;;;;;;;;;17.20;49.20;;;;;;4943779;29;19915;-80
2021/05/30 00:20:49;;;;;;;;;;;17.20;49.20;;;;;;4929109;29;20002;-79
2021/05/30 00:23:15;;;;;;;;;;;17.10;49.10;;;;;;4916431;29;20090;-80
2021/05/30 00:25:41;;;;;;;;;;;17.10;49.20;;;;;;4931807;29;19933;-81
2021/05/30 00:28:07;;;;;;;;;;;17.10;49.20;;;;;;4948743;29;19914;-82
2021/05/30 00:30:33;;;;;;;;;;;17.00;49.10;;;;;;4948874;28;19922;-79
2021/05/30 00:32:59;;;;;;;;;;;16.90;49.00;;;;;;4931381;29;19917;-80
2021/05/30 00:35:25;;;;;;;;;;;16.90;49.10;;;;;;4948427;28;19925;-81
2021/05/30 00:37:50;;;;;;;;;;;16.80;48.90;;;;;;4948163;28;20031;-78
2021/05/30 00:40:17;;;;;;;;;;;16.80;49.00;;;;;;4948402;29;19973;-81
2021/05/30 00:42:42;;;;;;;;;;;16.80;49.10;;;;;;4931084;29;19955;-79
2021/05/30 00:45:10;;;;;;;;;;;16.80;49.10;;;;;;4948966;28;19957;-79
2021/05/30 00:47:36;;;;;;;;;;;16.70;49.00;;;;;;4952004;29;19917;-79
2021/05/30 00:50:02;;;;;;;;;;;16.70;49.00;;;;;;4934601;29;19910;-79
2021/05/30 00:52:28;;;;;;;;;;;16.60;48.90;;;;;;4934173;29;19910;-80
2021/05/30 00:54:54;;;;;;;;;;;16.60;49.00;;;;;;4951342;29;19941;-79
2021/05/30 00:57:20;;;;;;;;;;;16.50;48.80;;;;;;4952189;28;19910;-80
2021/05/30 00:59:46;;;;;;;;;;;16.50;48.90;;;;;;4951665;28;19953;-79
2021/05/30 01:02:12;;;;;;;;;;;16.50;49.00;;;;;;4934064;29;19910;-79
2021/05/30 01:04:38;;;;;;;;;;;16.40;48.80;;;;;;4933743;28;20359;-80
2021/05/30 01:07:04;;;;;;;;;;;16.40;48.80;;;;;;4952082;28;19914;-79
2021/05/30 01:09:32;;;;;;;;;;;16.30;48.80;;;;;;4951352;28;19910;-82
2021/05/30 01:11:58;;;;;;;;;;;16.30;48.80;;;;;;4951140;29;19917;-79
2021/05/30 01:14:24;;;;;;;;;;;16.30;48.90;;;;;;4951286;28;19943;-81
2021/05/30 01:16:50;;;;;;;;;;;16.20;48.70;;;;;;4951090;28;19914;-78
2021/05/30 01:19:16;;;;;;;;;;;16.20;48.80;;;;;;4951005;28;20426;-78
2021/05/30 01:21:44;;;;;;;;;;;16.10;48.60;;;;;;4933881;29;20359;-82
2021/05/30 01:24:10;;;;;;;;;;;16.10;48.70;;;;;;4933888;28;19910;-80
2021/05/30 01:26:36;;;;;;;;;;;16.00;48.60;;;;;;4934070;29;19910;-82
2021/05/30 01:29:02;;;;;;;;;;;16.00;48.70;;;;;;4934197;29;19914;-80
2021/05/30 01:31:28;;;;;;;;;;;16.00;48.70;;;;;;4939711;28;20318;-80
2021/05/30 01:33:54;;;;;;;;;;;16.00;48.80;;;;;;4915873;29;19911;-79
2021/05/30 01:36:19;;;;;;;;;;;15.90;48.60;;;;;;4900190;29;19926;-78
2021/05/30 01:38:45;;;;;;;;;;;15.90;48.70;;;;;;4940775;29;20421;-80
2021/05/30 01:41:11;;;;;;;;;;;15.80;48.50;;;;;;4935133;29;20384;-81
2021/05/30 01:43:37;;;;;;;;;;;15.80;48.50;;;;;;4952120;28;20421;-83
2021/05/30 01:46:03;;;;;;;;;;;15.80;49.20;;;;;;4925888;29;19910;-82
2021/05/30 01:48:29;;;;;;;;;;;15.70;48.50;;;;;;4935375;29;19954;-82
2021/05/30 01:50:55;;;;;;;;;;;15.70;48.50;;;;;;4936276;29;20103;-83
2021/05/30 01:53:30;;;;;;;;;;;15.70;48.60;;;;;;4936032;29;19914;-82
2021/05/30 01:58:21;;;;;;;;;;;15.60;48.50;;;;;;4935890;29;20427;-82
2021/05/30 02:00:49;;;;;;;;;;;15.50;48.30;;;;;;4936032;29;19961;-82
2021/05/30 02:03:15;;;;;;;;;;;15.50;48.40;;;;;;4936114;29;19966;-82
2021/05/30 02:05:44;;;;;;;;;;;15.50;48.50;;;;;;4935808;29;19983;-83
2021/05/30 02:08:10;;;;;;;;;;;15.50;48.50;;;;;;4935859;29;19917;-83
2021/05/30 02:10:38;;;;;;;;;;;15.40;48.40;;;;;;4936129;29;19910;-84
2021/05/30 02:13:05;;;;;;;;;;;15.40;48.40;;;;;;4936055;29;19934;-83
2021/05/30 02:15:31;;;;;;;;;;;15.30;48.30;;;;;;4935783;29;19923;-83
2021/05/30 02:17:57;;;;;;;;;;;15.30;48.30;;;;;;4935630;29;20290;-83
2021/05/30 02:20:36;;;;;;;;;;;15.30;48.30;;;;;;4936011;29;19911;-82
2021/05/30 02:23:03;;;;;;;;;;;15.20;48.20;;;;;;4918099;29;19958;-81
2021/05/30 02:25:29;;;;;;;;;;;15.20;48.30;;;;;;4918267;29;19917;-82
2021/05/30 02:27:55;;;;;;;;;;;15.20;48.30;;;;;;4935332;29;19910;-82
2021/05/30 02:30:21;;;;;;;;;;;15.10;48.20;;;;;;4935515;29;20062;-82
2021/05/30 02:32:47;;;;;;;;;;;15.10;48.20;;;;;;4918258;29;19918;-80
2021/05/30 02:35:14;;;;;;;;;;;15.10;48.30;;;;;;4935439;29;19925;-81
2021/05/30 02:37:40;;;;;;;;;;;15.00;48.20;;;;;;4935603;29;19917;-81
2021/05/30 02:40:06;;;;;;;;;;;15.00;48.20;;;;;;4937610;29;19911;-81
2021/05/30 02:42:32;;;;;;;;;;;15.00;48.20;;;;;;4936389;29;20394;-81
2021/05/30 02:44:58;;;;;;;;;;;14.90;48.10;;;;;;4937011;29;19953;-85
2021/05/30 02:47:24;;;;;;;;;;;14.90;48.10;;;;;;4936933;29;20013;-83
2021/05/30 02:49:50;;;;;;;;;;;14.80;48.00;;;;;;4935960;29;19969;-81
2021/05/30 02:52:16;;;;;;;;;;;14.90;48.20;;;;;;4935911;29;20367;-83
2021/05/30 02:54:41;;;;;;;;;;;14.80;48.60;;;;;;4935494;29;20009;-82
2021/05/30 02:57:07;;;;;;;;;;;14.80;48.10;;;;;;4935046;29;20005;-83
2021/05/30 02:59:33;;;;;;;;;;;14.70;47.90;;;;;;4935219;29;19964;-83
2021/05/30 03:01:59;;;;;;;;;;;14.70;48.00;;;;;;4935035;29;20537;-81
2021/05/30 03:04:25;;;;;;;;;;;14.70;48.00;;;;;;4934818;29;19917;-80
2021/05/30 03:06:51;;;;;;;;;;;14.70;48.10;;;;;;4935161;29;20002;-81
2021/05/30 03:09:16;;;;;;;;;;;14.60;47.90;;;;;;4934701;29;20414;-83
2021/05/30 03:11:42;;;;;;;;;;;14.60;48.00;;;;;;4917878;29;19911;-81
2021/05/30 03:14:08;;;;;;;;;;;14.50;47.90;;;;;;4934852;29;19911;-81
2021/05/30 03:16:34;;;;;;;;;;;14.50;47.90;;;;;;4934707;29;19918;-82
2021/05/30 03:19:00;;;;;;;;;;;14.50;47.90;;;;;;4934744;29;19911;-83
2021/05/30 03:21:26;;;;;;;;;;;14.40;47.80;;;;;;4934212;29;19954;-82
2021/05/30 03:23:51;;;;;;;;;;;14.40;47.80;;;;;;4934654;29;19915;-84
2021/05/30 03:26:17;;;;;;;;;;;14.40;47.90;;;;;;4934356;29;19911;-83
2021/05/30 03:28:43;;;;;;;;;;;14.40;47.90;;;;;;4917872;29;19911;-84
2021/05/30 03:31:09;;;;;;;;;;;14.30;47.80;;;;;;4917692;29;19915;-82
2021/05/30 03:33:35;;;;;;;;;;;14.30;47.80;;;;;;4934727;29;19915;-84
2021/05/30 03:36:04;;;;;;;;;;;14.20;47.70;;;;;;4902047;29;19938;-82
2021/05/30 03:38:32;;;;;;;;;;;14.20;47.70;;;;;;4917527;29;19914;-83
2021/05/30 03:41:09;;;;;;;;;;;14.20;47.80;;;;;;4934701;29;19933;-80
2021/05/30 03:43:35;;;;;;;;;;;14.20;47.80;;;;;;4934483;29;19958;-82
2021/05/30 03:46:02;;;;;;;;;;;14.10;47.70;;;;;;4934573;29;19911;-81
2021/05/30 03:48:27;;;;;;;;;;;14.10;47.70;;;;;;4917441;29;20374;-83
2021/05/30 03:50:53;;;;;;;;;;;14.10;47.80;;;;;;4911541;29;19959;-82
2021/05/30 03:53:20;;;;;;;;;;;14.00;47.60;;;;;;4929968;29;19922;-82
2021/05/30 03:55:47;;;;;;;;;;;14.00;47.60;;;;;;4934605;29;19982;-82
2021/05/30 03:58:13;;;;;;;;;;;14.00;47.70;;;;;;4934508;29;20002;-81
2021/05/30 04:00:39;;;;;;;;;;;14.00;47.70;;;;;;4934496;29;20392;-81
2021/05/30 04:03:05;;;;;;;;;;;13.90;47.50;;;;;;4917434;29;19914;-82
2021/05/30 04:05:31;;;;;;;;;;;13.90;47.60;;;;;;4934596;29;19930;-81
2021/05/30 04:07:57;;;;;;;;;;;13.90;47.60;;;;;;4901251;29;19911;-82
2021/05/30 04:10:23;;;;;;;;;;;13.90;47.70;;;;;;4934282;29;19918;-82
2021/05/30 04:12:49;;;;;;;;;;;13.80;47.50;;;;;;4917196;29;19915;-82
2021/05/30 04:15:15;;;;;;;;;;;13.80;47.50;;;;;;4915866;29;20355;-83
2021/05/30 04:17:42;;;;;;;;;;;13.80;47.60;;;;;;4915679;29;19911;-83
2021/05/30 04:20:08;;;;;;;;;;;13.80;47.60;;;;;;4916455;29;19911;-84
2021/05/30 04:22:35;;;;;;;;;;;13.70;47.40;;;;;;4917746;29;19930;-83
2021/05/30 04:25:00;;;;;;;;;;;13.70;47.50;;;;;;4918887;29;19918;-84
2021/05/30 04:27:26;;;;;;;;;;;13.70;47.50;;;;;;4917593;29;19910;-83
2021/05/30 04:29:52;;;;;;;;;;;13.60;47.40;;;;;;4918749;29;19911;-80
2021/05/30 04:32:18;;;;;;;;;;;13.60;47.40;;;;;;4902116;29;20278;-83
2021/05/30 04:34:44;;;;;;;;;;;13.60;47.40;;;;;;4918441;29;19914;-83
2021/05/30 04:37:09;;;;;;;;;;;13.60;47.40;;;;;;4918618;29;19911;-83
2021/05/30 04:39:35;;;;;;;;;;;13.60;47.50;;;;;;4918596;29;19915;-82
2021/05/30 04:42:03;;;;;;;;;;;13.60;47.50;;;;;;4901834;29;19923;-82
2021/05/30 04:44:29;;;;;;;;;;;13.50;47.30;;;;;;4918130;29;19910;-82
2021/05/30 04:46:55;;;;;;;;;;;13.60;47.60;;;;;;4917609;29;20002;-82
2021/05/30 04:49:21;;;;;;;;;;;13.50;47.40;;;;;;4917903;29;20034;-80
2021/05/30 04:51:47;;;;;;;;;;;13.50;47.40;;;;;;4915190;29;19911;-81
2021/05/30 04:54:12;;;;;;;;;;;13.50;47.40;;;;;;4915011;29;20422;-81
2021/05/30 04:56:38;;;;;;;;;;;13.50;47.40;;;;;;4915175;29;19918;-81
2021/05/30 04:59:04;;;;;;;;;;;13.50;47.40;;;;;;4927278;29;19911;-80
2021/05/30 05:01:30;;;;;;;;;;;13.50;47.40;;;;;;4953367;28;20457;-84
2021/05/30 05:03:56;;;;;;;;;;;13.50;47.40;;;;;;4919445;29;19953;-83
2021/05/30 05:06:22;;;;;;;;;;;13.50;47.40;;;;;;4933403;29;19914;-83
2021/05/30 05:08:49;;;;;;;;;;;13.50;47.40;;;;;;4945694;28;19910;-81
2021/05/30 05:11:15;;;;;;;;;;;13.50;47.40;;;;;;4919883;29;19914;-79
2021/05/30 05:13:41;;;;;;;;;;;13.50;47.40;;;;;;4919472;29;19957;-78
2021/05/30 05:16:07;;;;;;;;;;;13.50;47.40;;;;;;4915597;29;19954;-80
2021/05/30 05:18:33;;;;;;;;;;;13.50;47.30;;;;;;4925502;29;19910;-81
2021/05/30 05:20:59;;;;;;;;;;;13.50;47.30;;;;;;4934108;28;19911;-77
2021/05/30 05:23:26;;;;;;;;;;;13.60;47.50;;;;;;4951186;28;19957;-78
2021/05/30 05:25:52;;;;;;;;;;;13.60;47.50;;;;;;4951374;29;19918;-81
2021/05/30 05:28:18;;;;;;;;;;;13.60;47.50;;;;;;4951701;28;19954;-81
2021/05/30 05:30:44;;;;;;;;;;;13.60;47.40;;;;;;4935073;28;19964;-80
2021/05/30 05:33:10;;;;;;;;;;;13.60;47.40;;;;;;4956072;28;19973;-84
2021/05/30 05:35:36;;;;;;;;;;;13.70;47.60;;;;;;4953575;29;20502;-82
2021/05/30 05:38:02;;;;;;;;;;;13.70;47.60;;;;;;4935767;29;19914;-80
2021/05/30 05:40:28;;;;;;;;;;;13.70;47.60;;;;;;4952115;28;20096;-83
2021/05/30 05:42:55;;;;;;;;;;;13.80;47.70;;;;;;4934264;29;19932;-81
2021/05/30 05:45:22;;;;;;;;;;;13.80;47.70;;;;;;4951542;28;19910;-83
2021/05/30 05:47:49;;;;;;;;;;;13.90;47.80;;;;;;4951182;28;20384;-80
2021/05/30 05:50:15;;;;;;;;;;;13.90;47.80;;;;;;4951072;28;19910;-81
2021/05/30 05:52:41;;;;;;;;;;;13.90;47.70;;;;;;4950642;28;19945;-82
2021/05/30 05:55:08;;;;;;;;;;;14.00;47.90;;;;;;4950422;28;19914;-83
2021/05/30 05:57:35;;;;;;;;;;;14.10;48.00;;;;;;4933891;28;19910;-81
2021/05/30 06:00:03;;;;;;;;;;;14.20;48.10;;;;;;4933889;29;19914;-80
2021/05/30 06:02:36;;;;;;;;;;;14.20;48.00;;;;;;4944811;28;19961;-80
2021/05/30 06:05:02;;;;;;;;;;;14.30;48.10;;;;;;4914398;29;19914;-80
2021/05/30 06:07:28;;;;;;;;;;;14.50;48.30;;;;;;4933257;29;20426;-80
2021/05/30 06:09:54;;;;;;;;;;;14.60;48.40;;;;;;4950943;29;19918;-79
2021/05/30 06:12:20;;;;;;;;;;;14.70;48.50;;;;;;4950483;29;20339;-79
2021/05/30 06:14:46;;;;;;;;;;;14.90;48.70;;;;;;4950674;28;19924;-82
2021/05/30 06:17:12;;;;;;;;;;;15.00;48.70;;;;;;4932615;29;19914;-80
2021/05/30 06:19:38;;;;;;;;;;;15.20;48.90;;;;;;4914212;29;20014;-81
2021/05/30 06:22:05;;;;;;;;;;;15.40;49.10;;;;;;4899874;28;20393;-80
2021/05/30 06:24:31;;;;;;;;;;;15.60;49.30;;;;;;4949805;28;19918;-79
2021/05/30 06:26:58;;;;;;;;;;;15.80;49.40;;;;;;4933760;29;20268;-80
2021/05/30 06:29:24;;;;;;;;;;;16.00;49.60;;;;;;4947414;28;19910;-83
2021/05/30 06:31:50;;;;;;;;;;;16.20;49.70;;;;;;4950822;28;19914;-82
2021/05/30 06:34:16;;;;;;;;;;;16.50;50.10;;;;;;4932515;29;20331;-82
2021/05/30 06:36:42;;;;;;;;;;;16.80;50.30;;;;;;4932768;29;19945;-83
2021/05/30 06:39:09;;;;;;;;;;;17.10;50.50;;;;;;4917141;29;19937;-81
2021/05/30 06:41:36;;;;;;;;;;;17.40;50.70;;;;;;4950111;28;20004;-80
2021/05/30 06:44:03;;;;;;;;;;;17.70;50.90;;;;;;4949668;28;19918;-81
2021/05/30 06:46:29;;;;;;;;;;;18.00;51.10;;;;;;4932670;29;20355;-81
2021/05/30 06:48:55;;;;;;;;;;;18.20;51.10;;;;;;4932294;29;19910;-81
2021/05/30 06:51:22;;;;;;;;;;;18.50;51.40;;;;;;4949482;28;19957;-81
2021/05/30 06:53:49;;;;;;;;;;;18.60;51.40;;;;;;4947767;28;19910;-89
2021/05/30 06:56:15;;;;;;;;;;;18.90;51.80;;;;;;4914098;29;20343;-84
2021/05/30 06:58:41;;;;;;;;;;;19.10;51.90;;;;;;4918895;29;20468;-80
2021/05/30 07:01:07;;;;;;;;;;;19.30;52.10;;;;;;4949682;28;19914;-82
2021/05/30 07:03:32;;;;;;;;;;;19.60;52.40;;;;;;4932867;29;19911;-82
2021/05/30 07:05:59;;;;;;;;;;;19.80;52.40;;;;;;4949486;29;19914;-81
2021/05/30 07:08:25;;;;;;;;;;;20.10;52.70;;;;;;4932641;29;19974;-83
2021/05/30 07:10:52;;;;;;;;;;;20.30;52.80;;;;;;4942132;29;19918;-80
2021/05/30 07:13:18;;;;;;;;;;;20.60;53.10;;;;;;4927035;29;19911;-84
2021/05/30 07:15:44;;;;;;;;;;;20.80;53.10;;;;;;4930175;29;19930;-83
2021/05/30 07:18:09;;;;;;;;;;;21.10;53.40;;;;;;4937024;29;19916;-84
2021/05/30 07:20:35;;;;;;;;;;;21.30;53.50;;;;;;4949324;28;19920;-81
2021/05/30 07:23:01;;;;;;;;;;;21.60;53.90;;;;;;4931501;29;19918;-82
2021/05/30 07:25:27;;;;;;;;;;;21.80;54.00;;;;;;4931698;29;19914;-82
2021/05/30 07:27:53;;;;;;;;;;;22.10;54.30;;;;;;4948948;29;20338;-80
2021/05/30 07:30:19;;;;;;;;;;;22.40;54.60;;;;;;4948750;29;19922;-81
2021/05/30 07:32:45;;;;;;;;;;;22.70;54.90;;;;;;4948888;29;19917;-81
2021/05/30 07:35:11;;;;;;;;;;;22.90;55.00;;;;;;4949646;29;19926;-81
2021/05/30 07:37:37;;;;;;;;;;;23.30;55.50;;;;;;4929276;29;19926;-80
2021/05/30 07:40:03;;;;;;;;;;;23.50;55.50;;;;;;4929657;29;19911;-81
2021/05/30 07:42:29;;;;;;;;;;;23.90;55.90;;;;;;4933840;29;20005;-80
2021/05/30 07:44:55;;;;;;;;;;;24.20;56.10;;;;;;4925725;29;20338;-80
2021/05/30 07:47:23;;;;;;;;;;;24.50;56.30;;;;;;4913388;29;19997;-80
2021/05/30 07:49:50;;;;;;;;;;;24.90;56.70;;;;;;4932776;29;19915;-83
2021/05/30 07:52:15;;;;;;;;;;;25.20;56.60;;;;;;4948840;29;19918;-83
2021/05/30 07:54:41;;;;;;;;;;;25.50;56.40;;;;;;4949447;28;19928;-82
2021/05/30 07:57:08;;;;;;;;;;;25.90;56.20;;;;;;4953770;29;19914;-82
2021/05/30 07:59:34;;;;;;;;;;;26.20;55.90;;;;;;4953515;29;19911;-81
2021/05/30 08:02:00;;;;;;;;;;;26.50;55.70;;;;;;4952898;29;19910;-80
2021/05/30 08:04:26;;;;;;;;;;;26.80;55.40;;;;;;4947982;29;19921;-81
2021/05/30 08:06:52;;;;;;;;;;;27.10;55.20;;;;;;4934841;29;19966;-81
2021/05/30 08:09:18;;;;;;;;;;;27.40;54.90;;;;;;4950181;29;19918;-80
2021/05/30 08:11:44;;;;;;;;;;;27.80;54.70;;;;;;4923342;29;19915;-81
2021/05/30 08:14:10;;;;;;;;;;;28.00;54.30;;;;;;4936503;29;19914;-82
2021/05/30 08:16:36;;;;;;;;;;;28.40;54.10;;;;;;4954776;29;19957;-83
2021/05/30 08:19:02;;;;;;;;;;;28.70;53.80;;;;;;4952702;29;19914;-82
2021/05/30 08:21:28;;;;;;;;;;;29.00;53.40;;;;;;4951676;29;19953;-82
2021/05/30 08:23:54;;;;;;;;;;;29.30;53.20;;;;;;4952014;28;19965;-82
2021/05/30 08:26:20;;;;;;;;;;;29.50;52.80;;;;;;4952343;28;19922;-83
2021/05/30 08:28:46;;;;;;;;;;;29.80;52.40;;;;;;4951473;28;20384;-82
2021/05/30 08:31:12;;;;;;;;;;;30.00;52.00;;;;;;4952190;29;19918;-84
2021/05/30 08:33:38;;;;;;;;;;;30.30;51.80;;;;;;4934521;28;20260;-83
2021/05/30 08:36:05;;;;;;;;;;;30.50;51.50;;;;;;4951998;28;19918;-84
2021/05/30 08:38:30;;;;;;;;;;;30.70;51.20;;;;;;4934858;29;19910;-83
2021/05/30 08:40:57;;;;;;;;;;;31.00;50.90;;;;;;4951963;28;20662;-84
2021/05/30 08:43:24;;;;;;;;;;;31.30;50.60;;;;;;4951789;29;19918;-81
2021/05/30 08:45:50;;;;;;;;;;;31.60;50.90;;;;;;4934762;29;20403;-80
2021/05/30 08:48:16;;;;;;;;;;;31.70;50.00;;;;;;4934213;29;20000;-80
2021/05/30 08:50:42;;;;;;;;;;;31.90;49.80;;;;;;4934457;29;20054;-79
2021/05/30 08:53:08;;;;;;;;;;;31.90;50.20;;;;;;4950911;28;19914;-82
2021/05/30 08:55:36;;;;;;;;;;;31.90;49.50;;;;;;4935000;29;20347;-82
2021/05/30 08:58:02;;;;;;;;;;;31.80;49.40;;;;;;4934558;29;19915;-82
2021/05/30 09:00:28;;;;;;;;;;;31.70;49.50;;;;;;4934644;29;20346;-83
2021/05/30 09:03:13;;;;;;;;;;;31.60;49.60;;;;;;4934372;28;19910;-83
2021/05/30 09:05:39;;;;;;;;;;;31.40;49.80;;;;;;4933888;28;19911;-87
2021/05/30 09:08:05;;;;;;;;;;;31.10;50.40;;;;;;4952262;28;19911;-84
2021/05/30 09:10:31;;;;;;;;;;;30.70;51.10;;;;;;4934689;29;19965;-84
2021/05/30 09:13:04;;;;;;;;;;;30.40;51.70;;;;;;4951717;28;19910;-84
2021/05/30 09:15:56;;;;;;;;;;;30.20;52.30;;;;;;4951836;28;20370;-85
2021/05/30 09:18:23;;;;;;;;;;;30.00;52.70;;;;;;4952146;28;19918;-81
2021/05/30 09:20:59;;;;;;;;;;;30.00;53.00;;;;;;4951361;28;19921;-82
2021/05/30 09:23:28;;;;;;;;;;;29.80;52.90;;;;;;4950854;28;20352;-86
2021/05/30 09:26:12;;;;;;;;;;;29.50;53.00;;;;;;4951428;28;19910;-85
2021/05/30 09:28:39;;;;;;;;;;;29.10;53.20;;;;;;4934383;29;19917;-84
2021/05/30 09:31:05;;;;;;;;;;;28.60;53.60;;;;;;4950937;29;20373;-82
2021/05/30 09:33:32;;;;;;;;;;;28.20;53.90;;;;;;4950392;28;20434;-81
2021/05/30 09:36:00;;;;;;;;;;;28.00;54.60;;;;;;4951051;28;20005;-81
2021/05/30 09:38:29;;;;;;;;;;;27.80;54.10;;;;;;4950660;28;20040;-81
2021/05/30 09:40:57;;;;;;;;;;;27.60;54.00;;;;;;4933393;29;20369;-81
2021/05/30 09:43:27;;;;;;;;;;;27.50;54.10;;;;;;4950595;28;19986;-81
2021/05/30 09:46:10;;;;;;;;;;;27.30;54.10;;;;;;4950796;28;19918;-80
2021/05/30 09:48:40;;;;;;;;;;;27.20;54.30;;;;;;4933575;28;20224;-81
2021/05/30 09:51:22;;;;;;;;;;;27.00;54.40;;;;;;4917952;29;19914;-82
2021/05/30 09:53:48;;;;;;;;;;;26.90;54.50;;;;;;4949908;28;19910;-81
2021/05/30 09:56:29;;;;;;;;;;;26.70;54.40;;;;;;4950824;28;20025;-80
2021/05/30 09:58:56;;;;;;;;;;;26.60;54.50;;;;;;4950190;28;19910;-81
2021/05/30 10:01:22;;;;;;;;;;;26.50;54.50;;;;;;4950509;29;20088;-82
2021/05/30 10:03:48;;;;;;;;;;;26.50;54.40;;;;;;4932857;28;20057;-81
2021/05/30 10:06:14;;;;;;;;;;;26.40;54.40;;;;;;4933790;29;19922;-84
2021/05/30 10:08:40;;;;;;;;;;;26.40;54.40;;;;;;4950240;28;19922;-85
2021/05/30 10:11:06;;;;;;;;;;;26.40;54.30;;;;;;4933661;29;20285;-79
2021/05/30 10:13:32;;;;;;;;;;;26.40;54.20;;;;;;4932627;29;19910;-81
2021/05/30 10:16:00;;;;;;;;;;;26.40;54.00;;;;;;4933207;28;20402;-82
2021/05/30 10:18:26;;;;;;;;;;;26.50;53.90;;;;;;4949554;28;20021;-82
2021/05/30 10:20:53;;;;;;;;;;;26.50;53.70;;;;;;4932757;29;19981;-81
2021/05/30 10:23:20;;;;;;;;;;;26.60;53.70;;;;;;4931140;29;20019;-80
2021/05/30 10:25:46;;;;;;;;;;;26.60;53.50;;;;;;4949909;29;19911;-81
2021/05/30 10:28:15;;;;;;;;;;;26.60;53.50;;;;;;4932770;29;20013;-82
2021/05/30 10:30:51;;;;;;;;;;;26.60;53.40;;;;;;4949782;29;19925;-80
2021/05/30 10:33:18;;;;;;;;;;;26.60;53.40;;;;;;4949558;28;20382;-81
2021/05/30 10:35:46;;;;;;;;;;;26.60;53.20;;;;;;4949330;28;19926;-80
2021/05/30 10:38:13;;;;;;;;;;;26.60;53.20;;;;;;4949511;28;19918;-79
2021/05/30 10:40:40;;;;;;;;;;;26.60;53.10;;;;;;4950140;29;19917;-81
2021/05/30 10:43:09;;;;;;;;;;;26.60;53.00;;;;;;4932488;29;20370;-82
2021/05/30 10:45:41;;;;;;;;;;;26.60;53.00;;;;;;4949508;28;19930;-83
2021/05/30 10:48:14;;;;;;;;;;;26.60;52.90;;;;;;4932336;29;20335;-84
2021/05/30 10:50:48;;;;;;;;;;;26.50;52.80;;;;;;4933042;28;20370;-82
2021/05/30 10:53:32;;;;;;;;;;;26.60;52.90;;;;;;4932340;29;19914;-81
2021/05/30 10:56:17;;;;;;;;;;;26.50;52.90;;;;;;4934110;29;19919;-82
2021/05/30 10:58:44;;;;;;;;;;;26.50;53.00;;;;;;4951658;28;20430;-80
2021/05/30 11:01:39;;;;;;;;;;;26.50;52.90;;;;;;4935515;29;19933;-83
2021/05/30 11:04:33;;;;;;;;;;;26.60;52.80;;;;;;4918125;29;19921;-81
2021/05/30 11:07:06;;;;;;;;;;;26.70;52.60;;;;;;4915434;29;19911;-81
2021/05/30 11:09:51;;;;;;;;;;;26.70;52.40;;;;;;4949083;28;19961;-81
2021/05/30 11:12:20;;;;;;;;;;;26.60;52.50;;;;;;4934072;29;19911;-80
2021/05/30 11:15:05;;;;;;;;;;;26.60;52.60;;;;;;4952476;28;19918;-80
2021/05/30 11:17:37;;;;;;;;;;;26.70;52.50;;;;;;4933522;29;19920;-80
2021/05/30 11:20:03;;;;;;;;;;;26.80;52.50;;;;;;4951608;28;19910;-80
2021/05/30 11:22:48;;;;;;;;;;;26.90;52.30;;;;;;4933120;29;19932;-80
2021/05/30 11:25:16;;;;;;;;;;;26.90;52.10;;;;;;4935394;29;19915;-81
2021/05/30 11:27:56;;;;;;;;;;;27.00;52.00;;;;;;4934724;29;20326;-81
2021/05/30 11:30:39;;;;;;;;;;;26.90;52.10;;;;;;4934792;29;19919;-82
2021/05/30 11:33:10;;;;;;;;;;;26.80;52.10;;;;;;4950727;28;20417;-82
2021/05/30 11:35:36;;;;;;;;;;;26.80;52.00;;;;;;4934247;29;19918;-83
2021/05/30 11:38:03;;;;;;;;;;;26.80;52.10;;;;;;4930476;29;19914;-87
2021/05/30 11:40:29;;;;;;;;;;;26.80;52.00;;;;;;4917210;29;19914;-82
2021/05/30 11:42:55;;;;;;;;;;;26.70;51.90;;;;;;4939171;29;19921;-83
2021/05/30 11:45:34;;;;;;;;;;;26.70;51.90;;;;;;4952737;28;19915;-82
2021/05/30 11:48:00;;;;;;;;;;;26.80;52.00;;;;;;4952040;29;19910;-80
2021/05/30 11:50:33;;;;;;;;;;;26.80;51.90;;;;;;4934410;29;19914;-86
2021/05/30 11:53:04;;;;;;;;;;;26.90;51.80;;;;;;4951751;29;19917;-81
2021/05/30 11:56:49;;;;;;;4.85;3.47;;;27.00;51.20;;;;;;5062903;28;20453;-67
2021/05/30 11:59:15;;;;;;;4.95;3.25;;;27.00;48.50;;;;;;5062862;28;20028;-65
2021/05/30 12:01:51;;;;;;;4.68;2.83;;;27.00;47.00;;;;;;5062848;28;20128;-66
2021/05/30 12:04:22;;;;;;;3.60;2.83;;;27.10;45.50;;;;;;5045159;28;20029;-67
2021/05/30 12:06:52;;;;;;;4.63;4.05;;;27.10;45.00;;;;;;5043449;28;20033;-62
2021/05/30 12:09:20;;;;;;;7.25;3.72;;;27.10;44.00;;;;;;5042555;28;20032;-64
2021/05/30 12:11:46;;;;;;;6.90;3.58;;;27.10;43.40;;;;;;5042305;28;20522;-62
2021/05/30 12:14:14;;;;;;;5.95;5.20;;;27.00;43.40;;;;;;5042385;28;20224;-61
2021/05/30 12:16:40;;;;;;;6.30;5.63;;;27.00;43.30;;;;;;5041138;28;20207;-61
2021/05/30 12:19:07;;;;;;;7.95;5.53;;;27.00;43.10;;;;;;5041674;28;20177;-63
2021/05/30 12:21:44;;;;;;;7.85;5.53;;;27.00;42.80;;;;;;5041222;28;20124;-62
2021/05/30 12:24:13;;;;;;;8.23;5.88;;;26.90;42.60;;;;;;5038656;28;20021;-61
2021/05/30 12:26:46;;;;;;;6.82;6.13;;;26.80;42.60;;;;;;5042347;28;20029;-63
2021/05/30 12:29:14;;;;;;;6.03;5.40;;;26.80;42.50;;;;;;5041648;28;20040;-64
2021/05/30 12:31:41;;;;;;;6.30;5.53;;;26.70;42.90;;;;;;5042132;28;20084;-63
2021/05/30 12:34:10;;;;;;;5.20;4.70;;;26.70;42.90;;;;;;5041421;28;20511;-60
2021/05/30 12:36:48;;;;;;;6.60;5.00;;;26.90;42.90;;;;;;5042052;28;20059;-62
2021/05/30 12:39:25;;;;;;;8.82;4.88;;;27.10;42.80;;;;;;5042267;28;20515;-64
2021/05/30 12:41:59;;;;;;;8.35;5.18;;;27.40;42.80;;;;;;5042025;28;20064;-62
2021/05/30 12:44:48;;;;;;;4.35;3.95;;;27.60;42.70;;;;;;5033615;22;20050;-74
2021/05/30 12:47:32;;;;;;;5.20;4.57;;;27.80;42.70;;;;;;4986246;28;20035;-71
2021/05/30 12:50:05;;;;;;;6.75;4.72;;;28.00;42.60;;;;;;4984676;28;20038;-73
2021/05/30 12:52:45;;;;;;;4.40;3.97;;;28.20;42.50;;;;;;4983948;28;20040;-73
2021/05/30 12:55:15;;;;;;;4.18;3.88;;;28.30;42.50;;;;;;4985047;28;20077;-72
2021/05/30 12:57:56;;;;;;;4.35;3.95;;;28.50;42.60;;;;;;4986297;28;20118;-74
2021/05/30 13:00:37;;;;;;;5.55;3.92;;;28.70;42.50;;;;;;5004349;28;20049;-71
2021/05/30 13:03:06;;;;;;;5.05;4.30;;;28.90;42.50;;;;;;5002124;28;20029;-72
2021/05/30 13:05:44;;;;;;;8.15;3.88;;;29.10;42.50;;;;;;4999828;28;20029;-72
2021/05/30 13:08:27;;;;;;;3.78;3.45;;;29.20;42.40;;;;;;4988060;28;20040;-73
2021/05/30 13:10:57;;;;;;;4.30;3.25;;;29.40;42.40;;;;;;4989275;28;20485;-72
2021/05/30 13:13:28;;;;;;;3.70;3.30;;;29.50;43.00;;;;;;4988904;28;20034;-71
2021/05/30 13:15:55;;;;;;;3.70;3.30;;;29.60;42.40;;;;;;4988546;28;20042;-74
2021/05/30 13:18:21;;;;;;;3.40;3.10;;;29.80;42.40;;;;;;4987767;28;20030;-74
2021/05/30 13:20:51;;;;;;;4.05;2.95;;;30.00;42.40;;;;;;4989071;28;20400;-73
2021/05/30 13:23:22;;;;;;;3.60;3.30;;;30.10;42.30;;;;;;4987158;28;20489;-73
2021/05/30 13:26:13;;;;;;;3.65;3.25;;;30.20;42.20;;;;;;4987314;28;20525;-74
2021/05/30 13:28:41;;;;;;;3.63;2.60;;;30.40;42.30;;;;;;4987557;28;20041;-74
2021/05/30 13:31:13;;;;;;;2.83;2.63;;;30.50;42.20;;;;;;4989223;28;20030;-74
2021/05/30 13:33:45;;;;;;;3.10;2.88;;;30.60;42.10;;;;;;4988547;28;20514;-73
2021/05/30 13:36:13;;;;;;;4.63;3.00;;;30.70;42.10;;;;;;4988632;28;20042;-73
2021/05/30 13:38:39;;;;;;;3.28;2.65;;;30.70;42.10;;;;;;4988998;28;20034;-72
2021/05/30 13:41:20;;;;;;;3.00;2.75;;;30.70;42.10;;;;;;4987343;28;20049;-75
2021/05/30 13:43:46;;;;;;;3.20;2.90;;;30.70;42.10;;;;;;4988458;28;20372;-74
2021/05/30 13:46:13;;;;;;;5.05;2.90;;;30.70;42.30;;;;;;4987226;28;20030;-71
2021/05/30 13:48:39;;;;;;;4.25;3.30;;;30.60;42.30;;;;;;4986522;28;20041;-72
2021/05/30 13:51:13;;;;;;;2.90;2.40;;;30.60;42.40;;;;;;4986946;28;20109;-74
2021/05/30 13:53:41;;;;;;;2.95;2.65;;;30.60;42.40;;;;;;4987957;28;20162;-72
2021/05/30 13:56:08;;;;;;;3.25;2.95;;;30.60;42.50;;;;;;4988262;28;20046;-75
2021/05/30 13:58:34;;;;;;;3.28;2.90;;;30.50;42.50;;;;;;4986869;28;20504;-74
2021/05/30 14:01:00;;;;;;;3.28;2.53;;;30.50;42.60;;;;;;4987250;28;20041;-76
2021/05/30 14:03:27;;;;;;;3.15;2.83;;;30.50;42.60;;;;;;4986486;28;20034;-73
2021/05/30 14:05:53;;;;;;;2.65;2.45;;;30.60;42.70;;;;;;4983128;28;20246;-72
2021/05/30 14:08:18;;;;;;;8.00;3.83;;;30.60;42.70;;;;;;4978378;28;20138;-73
2021/05/30 14:10:44;;;;;;;6.28;4.07;;;30.60;42.20;;;;;;4987806;28;20111;-74